createdAt,value
2023-05-06T00:00:10.676Z,100.00
2023-05-06T00:02:44.460Z,100.00
2023-05-06T00:05:13.943Z,100.00
2023-05-06T00:07:43.722Z,100.00
2023-05-06T00:10:12.155Z,100.00
2023-05-06T00:12:40.871Z,100.00
2023-05-06T00:15:10.336Z,100.00
2023-05-06T00:17:38.997Z,100.00
2023-05-06T00:20:09.707Z,100.00
2023-05-06T00:22:38.054Z,100.00
2023-05-06T00:25:08.656Z,100.00
2023-05-06T00:27:37.171Z,100.00
2023-05-06T00:30:06.680Z,100.00
2023-05-06T00:32:35.257Z,100.00
2023-05-06T00:35:04.281Z,100.00
2023-05-06T00:37:32.848Z,100.00
2023-05-06T00:40:01.728Z,100.00
2023-05-06T00:42:31.695Z,100.00
2023-05-06T00:45:00.313Z,100.00
2023-05-06T00:47:28.862Z,100.00
2023-05-06T00:49:57.377Z,100.00
2023-05-06T00:52:26.099Z,100.00
2023-05-06T00:54:54.954Z,100.00
2023-05-06T00:57:24.524Z,100.00
2023-05-06T00:59:55.192Z,100.00
2023-05-06T01:02:26.450Z,100.00
2023-05-06T01:05:03.326Z,100.00
2023-05-06T01:07:40.657Z,100.00
2023-05-06T01:10:18.652Z,100.00
2023-05-06T01:12:55.255Z,100.00
2023-05-06T01:15:33.943Z,100.00
2023-05-06T01:18:09.024Z,100.00
2023-05-06T01:20:38.448Z,100.00
2023-05-06T01:23:13.171Z,100.00
2023-05-06T01:25:42.224Z,100.00
2023-05-06T01:28:12.191Z,100.00
2023-05-06T01:30:47.255Z,100.00
2023-05-06T01:33:20.135Z,100.00
2023-05-06T01:35:56.039Z,100.00
2023-05-06T01:38:35.825Z,100.00
2023-05-06T01:41:05.845Z,100.00
2023-05-06T01:43:41.466Z,100.00
2023-05-06T01:46:14.605Z,100.00
2023-05-06T01:48:43.975Z,100.00
2023-05-06T01:51:12.362Z,100.00
2023-05-06T01:53:42.322Z,100.00
2023-05-06T01:56:11.741Z,100.00
2023-05-06T01:58:40.435Z,100.00
2023-05-06T02:01:08.786Z,100.00
2023-05-06T02:03:37.319Z,100.00
2023-05-06T02:06:05.969Z,100.00
2023-05-06T02:08:39.726Z,100.00
2023-05-06T02:11:10.495Z,100.00
2023-05-06T02:13:39.347Z,100.00
2023-05-06T02:16:09.562Z,100.00
2023-05-06T02:18:38.649Z,100.00
2023-05-06T02:21:07.050Z,100.00
2023-05-06T02:23:35.702Z,100.00
2023-05-06T02:26:04.329Z,100.00
2023-05-06T02:28:36.015Z,100.00
2023-05-06T02:31:04.398Z,100.00
2023-05-06T02:33:33.019Z,100.00
2023-05-06T02:36:01.406Z,100.00
2023-05-06T02:38:30.045Z,100.00
2023-05-06T02:40:58.547Z,100.00
2023-05-06T02:43:28.203Z,100.00
2023-05-06T02:45:58.191Z,100.00
2023-05-06T02:48:27.663Z,100.00
2023-05-06T02:50:56.002Z,100.00
2023-05-06T02:53:24.357Z,100.00
2023-05-06T02:55:52.696Z,100.00
2023-05-06T02:58:21.155Z,100.00
2023-05-06T03:00:49.560Z,100.00
2023-05-06T03:03:19.585Z,100.00
2023-05-06T03:05:47.955Z,100.00
2023-05-06T03:08:16.764Z,100.00
2023-05-06T03:10:46.725Z,100.00
2023-05-06T03:13:17.759Z,100.00
2023-05-06T03:15:46.188Z,100.00
2023-05-06T03:18:14.546Z,100.00
2023-05-06T03:20:44.389Z,100.00
2023-05-06T03:23:13.242Z,100.00
2023-05-06T03:25:41.675Z,100.00
2023-05-06T03:28:10.370Z,100.00
2023-05-06T03:30:39.503Z,100.00
2023-05-06T03:33:09.708Z,100.00
2023-05-06T03:35:38.156Z,100.00
2023-05-06T03:38:08.027Z,100.00
2023-05-06T03:40:44.056Z,100.00
2023-05-06T03:43:13.577Z,100.00
2023-05-06T03:45:42.924Z,100.00
2023-05-06T03:48:11.694Z,100.00
2023-05-06T03:50:44.144Z,100.00
2023-05-06T03:53:15.364Z,100.00
2023-05-06T03:55:46.397Z,100.00
2023-05-06T03:58:15.395Z,100.00
2023-05-06T04:00:46.075Z,100.00
2023-05-06T04:03:15.281Z,100.00
2023-05-06T04:06:00.048Z,100.00
2023-05-06T04:08:29.977Z,100.00
2023-05-06T04:10:58.880Z,100.00
2023-05-06T04:13:29.936Z,100.00
2023-05-06T04:16:09.648Z,100.00
2023-05-06T04:18:43.814Z,100.00
2023-05-06T04:21:15.211Z,100.00
2023-05-06T04:24:05.913Z,100.00
2023-05-06T04:26:38.876Z,100.00
2023-05-06T04:29:07.825Z,100.00
2023-05-06T04:31:48.149Z,100.00
2023-05-06T04:34:16.906Z,100.00
2023-05-06T04:36:47.577Z,100.00
2023-05-06T04:39:36.604Z,100.00
2023-05-06T04:42:05.484Z,100.00
2023-05-06T04:44:42.154Z,100.00
2023-05-06T04:47:19.294Z,100.00
2023-05-06T04:49:55.939Z,100.00
2023-05-06T04:52:25.321Z,100.00
2023-05-06T04:54:55.061Z,100.00
2023-05-06T04:57:25.155Z,100.00
2023-05-06T05:00:16.377Z,100.00
2023-05-06T05:02:45.070Z,100.00
2023-05-06T05:05:19.157Z,100.00
2023-05-06T05:07:55.866Z,100.00
2023-05-06T05:10:27.369Z,100.00
2023-05-06T05:12:56.243Z,100.00
2023-05-06T05:15:41.708Z,100.00
2023-05-06T05:18:10.618Z,100.00
2023-05-06T05:20:41.906Z,100.00
2023-05-06T05:23:19.747Z,100.00
2023-05-06T05:25:49.879Z,100.00
2023-05-06T05:28:18.887Z,100.00
2023-05-06T05:30:48.658Z,100.00
2023-05-06T05:33:17.152Z,100.00
2023-05-06T05:35:54.412Z,100.00
2023-05-06T05:38:23.438Z,100.00
2023-05-06T05:40:53.838Z,100.00
2023-05-06T05:43:25.855Z,100.00
2023-05-06T05:46:05.365Z,100.00
2023-05-06T05:48:35.155Z,100.00
2023-05-06T05:51:05.819Z,100.00
2023-05-06T05:53:34.986Z,100.00
2023-05-06T05:56:31.056Z,96.79
2023-05-06T05:59:00.253Z,89.08
2023-05-06T06:01:30.399Z,84.27
2023-05-06T06:04:19.267Z,80.50
2023-05-06T06:06:47.771Z,77.17
2023-05-06T06:09:17.174Z,75.45
2023-05-06T06:11:47.231Z,76.09
2023-05-06T06:14:15.862Z,72.28
2023-05-06T06:16:46.693Z,70.29
2023-05-06T06:19:15.716Z,67.67
2023-05-06T06:21:45.220Z,66.86
2023-05-06T06:24:22.600Z,67.78
2023-05-06T06:26:53.027Z,63.82
2023-05-06T06:29:21.431Z,62.43
2023-05-06T06:31:49.972Z,62.31
2023-05-06T06:34:18.568Z,62.35
2023-05-06T06:36:46.976Z,61.73
2023-05-06T06:39:15.617Z,61.76
2023-05-06T06:41:44.105Z,58.69
2023-05-06T06:44:13.746Z,59.95
2023-05-06T06:46:42.815Z,60.45
2023-05-06T06:49:36.547Z,60.60
2023-05-06T06:52:05.918Z,59.82
2023-05-06T06:54:34.280Z,57.62
2023-05-06T06:57:03.381Z,56.50
2023-05-06T06:59:33.525Z,53.70
2023-05-06T07:02:01.941Z,53.53
2023-05-06T07:04:31.496Z,53.88
2023-05-06T07:09:42.434Z,53.39
2023-05-06T07:12:11.106Z,50.57
2023-05-06T07:14:41.377Z,50.08
2023-05-06T07:17:22.207Z,50.25
2023-05-06T07:19:50.683Z,47.88
2023-05-06T07:22:19.368Z,49.21
2023-05-06T07:24:47.747Z,49.74
2023-05-06T07:29:59.886Z,48.89
2023-05-06T07:32:28.306Z,46.48
2023-05-06T07:34:56.636Z,49.28
2023-05-06T07:37:34.753Z,47.23
2023-05-06T07:40:03.238Z,46.96
2023-05-06T07:42:31.887Z,45.53
2023-05-06T07:45:01.618Z,46.96
2023-05-06T07:47:32.227Z,46.75
2023-05-06T07:50:00.868Z,47.21
2023-05-06T07:52:29.246Z,48.65
2023-05-06T07:54:57.767Z,47.38
2023-05-06T07:57:26.157Z,47.40
2023-05-06T07:59:54.587Z,46.04
2023-05-06T08:02:24.320Z,48.09
2023-05-06T08:04:52.773Z,47.34
2023-05-06T08:07:21.147Z,45.79
2023-05-06T08:09:49.563Z,43.57
2023-05-06T08:12:17.913Z,43.15
2023-05-06T08:14:46.579Z,41.58
2023-05-06T08:17:15.059Z,42.86
2023-05-06T08:19:44.840Z,41.91
2023-05-06T08:22:14.759Z,40.95
2023-05-06T08:24:43.288Z,42.05
2023-05-06T08:27:12.021Z,40.90
2023-05-06T08:29:40.424Z,40.18
2023-05-06T08:32:08.827Z,39.46
2023-05-06T08:34:37.797Z,41.23
2023-05-06T08:37:08.219Z,41.58
2023-05-06T08:39:36.760Z,40.49
2023-05-06T08:42:06.594Z,40.73
2023-05-06T08:44:34.939Z,40.73
2023-05-06T08:47:03.418Z,40.63
2023-05-06T08:49:35.213Z,42.11
2023-05-06T08:52:06.600Z,42.24
2023-05-06T08:54:36.995Z,42.54
2023-05-06T08:57:06.778Z,43.39
2023-05-06T08:59:39.148Z,43.91
2023-05-06T09:02:08.447Z,43.99
2023-05-06T09:04:38.148Z,44.13
2023-05-06T09:07:06.570Z,45.20
2023-05-06T09:09:36.693Z,45.35
2023-05-06T09:12:23.456Z,45.04
2023-05-06T09:14:52.038Z,47.61
2023-05-06T09:17:24.100Z,46.75
2023-05-06T09:19:53.309Z,47.23
2023-05-06T09:22:22.693Z,46.53
2023-05-06T09:24:56.602Z,45.86
2023-05-06T09:27:26.457Z,46.09
2023-05-06T09:30:44.615Z,47.33
2023-05-06T09:33:13.311Z,46.34
2023-05-06T09:35:53.912Z,45.78
2023-05-06T09:38:22.321Z,43.28
2023-05-06T09:40:52.706Z,43.40
2023-05-06T09:43:21.604Z,44.64
2023-05-06T09:45:50.109Z,44.34
2023-05-06T09:48:30.211Z,44.42
2023-05-06T09:51:00.700Z,43.13
2023-05-06T09:53:31.782Z,43.76
2023-05-06T09:56:09.843Z,44.08
2023-05-06T09:58:38.919Z,43.83
2023-05-06T10:01:08.986Z,43.68
2023-05-06T10:03:38.214Z,43.99
2023-05-06T10:06:17.921Z,45.08
2023-05-06T10:08:47.810Z,42.91
2023-05-06T10:11:19.098Z,41.19
2023-05-06T10:13:47.921Z,42.32
2023-05-06T10:16:25.502Z,41.44
2023-05-06T10:18:56.418Z,40.05
2023-05-06T10:21:28.646Z,39.19
2023-05-06T10:24:18.526Z,38.95
2023-05-06T10:26:48.872Z,37.08
2023-05-06T10:29:18.542Z,37.69
2023-05-06T10:31:56.707Z,37.31
2023-05-06T10:34:33.040Z,37.97
2023-05-06T10:37:02.125Z,36.64
2023-05-06T10:39:30.733Z,38.67
2023-05-06T10:42:07.513Z,37.72
2023-05-06T10:45:00.503Z,36.37
2023-05-06T10:47:29.202Z,35.09
2023-05-06T10:50:20.908Z,33.14
2023-05-06T10:52:52.804Z,35.61
2023-05-06T10:55:29.890Z,37.06
2023-05-06T10:58:17.267Z,38.64
2023-05-06T11:00:54.478Z,39.77
2023-05-06T11:03:27.853Z,41.61
2023-05-06T11:06:01.516Z,41.80
2023-05-06T11:08:30.068Z,41.95
2023-05-06T11:10:58.496Z,43.01
2023-05-06T11:13:29.817Z,42.79
2023-05-06T11:16:00.189Z,41.80
2023-05-06T11:18:45.070Z,38.79
2023-05-06T11:21:41.596Z,37.54
2023-05-06T11:24:14.263Z,36.45
2023-05-06T11:26:44.015Z,34.32
2023-05-06T11:29:16.621Z,34.80
2023-05-06T11:31:47.218Z,35.78
2023-05-06T11:34:22.840Z,38.92
2023-05-06T11:36:54.887Z,38.65
2023-05-06T11:39:23.179Z,39.32
2023-05-06T11:42:02.850Z,40.83
2023-05-06T11:44:34.325Z,42.96
2023-05-06T11:47:05.814Z,42.81
2023-05-06T11:49:43.372Z,43.42
2023-05-06T11:52:14.873Z,44.55
2023-05-06T11:54:43.764Z,45.40
2023-05-06T11:57:12.471Z,45.25
2023-05-06T11:59:42.603Z,46.38
2023-05-06T12:02:21.271Z,46.94
2023-05-06T12:04:51.195Z,48.09
2023-05-06T12:07:19.791Z,49.23
2023-05-06T12:09:50.460Z,48.67
2023-05-06T12:12:27.353Z,51.45
2023-05-06T12:14:57.390Z,56.67
2023-05-06T12:17:26.129Z,61.01
2023-05-06T12:19:54.728Z,65.77
2023-05-06T12:22:33.930Z,70.32
2023-05-06T12:25:14.049Z,75.74
2023-05-06T12:27:42.503Z,76.20
2023-05-06T12:30:29.978Z,78.40
2023-05-06T12:32:59.807Z,76.88
2023-05-06T12:35:29.189Z,79.52
2023-05-06T12:37:58.576Z,73.90
2023-05-06T12:40:27.330Z,78.30
2023-05-06T12:42:56.471Z,76.53
2023-05-06T12:45:26.766Z,74.47
2023-05-06T12:47:55.782Z,69.80
2023-05-06T12:50:44.644Z,70.44
2023-05-06T12:53:14.218Z,70.61
2023-05-06T12:55:42.972Z,71.19
2023-05-06T12:58:17.403Z,71.58
2023-05-06T13:00:55.825Z,72.69
2023-05-06T13:03:24.340Z,72.77
2023-05-06T13:05:52.865Z,74.09
2023-05-06T13:08:21.252Z,72.91
2023-05-06T13:10:49.616Z,76.43
2023-05-06T13:13:29.036Z,78.39
2023-05-06T13:15:58.773Z,80.28
2023-05-06T13:18:27.411Z,78.37
2023-05-06T13:23:52.750Z,74.38
2023-05-06T13:26:21.461Z,79.77
2023-05-06T13:28:49.822Z,73.25
2023-05-06T13:31:20.138Z,77.93
2023-05-06T13:33:49.059Z,72.60
2023-05-06T13:36:17.479Z,70.16
2023-05-06T13:38:45.925Z,71.57
2023-05-06T13:41:14.570Z,75.68
2023-05-06T13:43:53.590Z,70.82
2023-05-06T13:46:23.377Z,72.38
2023-05-06T13:48:51.845Z,66.32
2023-05-06T13:51:20.961Z,63.02
2023-05-06T13:53:51.699Z,67.97
2023-05-06T13:56:20.102Z,66.86
2023-05-06T13:58:48.478Z,63.62
2023-05-06T14:01:17.001Z,64.22
2023-05-06T14:03:47.307Z,62.38
2023-05-06T14:06:19.833Z,60.71
2023-05-06T14:08:48.266Z,62.58
2023-05-06T14:11:16.782Z,60.81
2023-05-06T14:13:45.162Z,63.56
2023-05-06T14:16:32.420Z,60.68
2023-05-06T14:19:02.337Z,63.51
2023-05-06T14:21:30.748Z,65.32
2023-05-06T14:24:00.989Z,62.74
2023-05-06T14:26:30.022Z,66.61
2023-05-06T14:28:59.012Z,63.29
2023-05-06T14:31:27.834Z,62.43
2023-05-06T14:33:56.701Z,63.67
2023-05-06T14:36:29.361Z,61.68
2023-05-06T14:39:04.319Z,61.95
2023-05-06T14:41:32.876Z,64.08
2023-05-06T14:44:01.206Z,60.26
2023-05-06T14:46:34.019Z,60.84
2023-05-06T14:49:02.877Z,59.88
2023-05-06T14:57:11.595Z,58.24
2023-05-06T14:59:42.604Z,57.91
2023-05-06T15:02:11.181Z,58.22
2023-05-06T15:04:50.306Z,59.41
2023-05-06T15:07:18.830Z,58.84
2023-05-06T15:09:47.167Z,60.53
2023-05-06T15:12:16.048Z,60.17
2023-05-06T15:14:53.459Z,62.78
2023-05-06T15:17:22.137Z,64.20
2023-05-06T15:19:50.543Z,64.71
2023-05-06T15:22:18.905Z,65.67
2023-05-06T15:24:53.390Z,67.58
2023-05-06T15:27:30.684Z,68.56
2023-05-06T15:30:04.026Z,69.56
2023-05-06T15:32:33.853Z,70.96
2023-05-06T15:35:11.475Z,70.90
2023-05-06T15:37:40.119Z,70.82
2023-05-06T15:40:11.854Z,70.10
2023-05-06T15:42:41.253Z,70.56
2023-05-06T15:45:21.370Z,69.46
2023-05-06T15:47:49.815Z,71.06
2023-05-06T15:50:31.780Z,71.27
2023-05-06T15:53:02.371Z,71.32
2023-05-06T15:56:02.420Z,69.58
2023-05-06T15:58:50.843Z,71.20
2023-05-06T16:01:25.427Z,68.92
2023-05-06T16:03:58.346Z,68.96
2023-05-06T16:06:32.812Z,68.29
2023-05-06T16:09:01.230Z,68.37
2023-05-06T16:11:29.611Z,69.03
2023-05-06T16:13:58.005Z,69.71
2023-05-06T16:16:27.748Z,70.71
2023-05-06T16:18:56.250Z,72.03
2023-05-06T16:21:24.599Z,71.28
2023-05-06T16:23:53.140Z,72.34
2023-05-06T16:26:22.100Z,73.11
2023-05-06T16:28:59.484Z,74.35
2023-05-06T16:31:30.323Z,74.44
2023-05-06T16:33:58.982Z,74.88
2023-05-06T16:36:28.528Z,75.15
2023-05-06T16:38:57.065Z,75.41
2023-05-06T16:41:28.510Z,75.81
2023-05-06T16:44:11.552Z,75.79
2023-05-06T16:46:41.642Z,76.33
2023-05-06T16:49:21.153Z,75.91
2023-05-06T16:51:49.803Z,76.29
2023-05-06T16:54:18.706Z,75.98
2023-05-06T16:56:52.219Z,76.42
2023-05-06T16:59:24.552Z,79.29
2023-05-06T17:01:54.745Z,86.27
2023-05-06T17:04:24.567Z,87.95
2023-05-06T17:06:56.127Z,88.38
2023-05-06T17:09:27.913Z,94.23
2023-05-06T17:11:58.559Z,95.96
2023-05-06T17:14:28.072Z,98.99
2023-05-06T17:17:02.088Z,100.00
2023-05-06T17:19:40.435Z,100.00
2023-05-06T17:22:09.071Z,100.00
2023-05-06T17:24:37.511Z,100.00
2023-05-06T17:27:05.917Z,100.00
2023-05-06T17:29:34.419Z,100.00
2023-05-06T17:32:04.736Z,100.00
2023-05-06T17:34:35.345Z,100.00
2023-05-06T17:37:04.769Z,100.00
2023-05-06T17:39:33.968Z,100.00
2023-05-06T17:42:08.565Z,100.00
2023-05-06T17:44:38.090Z,100.00
2023-05-06T17:47:08.346Z,100.00
2023-05-06T17:49:36.962Z,100.00
2023-05-06T17:52:05.806Z,100.00
2023-05-06T17:54:36.256Z,100.00
2023-05-06T17:57:04.793Z,100.00
2023-05-06T17:59:33.331Z,100.00
2023-05-06T18:02:01.962Z,100.00
2023-05-06T18:04:34.125Z,100.00
2023-05-06T18:07:03.005Z,100.00
2023-05-06T18:09:32.317Z,100.00
2023-05-06T18:12:00.956Z,100.00
2023-05-06T18:17:25.759Z,100.00
2023-05-06T18:19:55.913Z,100.00
2023-05-06T18:22:24.387Z,100.00
2023-05-06T18:25:01.276Z,100.00
2023-05-06T18:27:32.228Z,100.00
2023-05-06T18:30:00.808Z,100.00
2023-05-06T18:32:29.401Z,100.00
2023-05-06T18:35:03.380Z,100.00
2023-05-06T18:37:33.050Z,100.00
2023-05-06T18:40:02.092Z,100.00
2023-05-06T18:42:33.338Z,100.00
2023-05-06T18:45:04.769Z,100.00
2023-05-06T18:47:33.810Z,100.00
2023-05-06T18:50:04.126Z,100.00
2023-05-06T18:52:33.501Z,100.00
2023-05-06T18:55:02.701Z,100.00
2023-05-06T18:57:40.801Z,100.00
2023-05-06T19:00:10.054Z,100.00
2023-05-06T19:02:38.769Z,100.00
2023-05-06T19:05:09.972Z,100.00
2023-05-06T19:07:42.905Z,100.00
2023-05-06T19:10:13.750Z,100.00
2023-05-06T19:12:42.505Z,100.00
2023-05-06T19:15:14.005Z,100.00
2023-05-06T19:17:43.792Z,100.00
2023-05-06T19:20:14.796Z,100.00
2023-05-06T19:22:43.814Z,100.00
2023-05-06T19:25:12.839Z,100.00
2023-05-06T19:27:41.401Z,100.00
2023-05-06T19:30:11.028Z,100.00
2023-05-06T19:32:40.372Z,100.00
2023-05-06T19:35:09.945Z,100.00
2023-05-06T19:37:40.185Z,100.00
2023-05-06T19:40:10.040Z,100.00
2023-05-06T19:42:38.580Z,100.00
2023-05-06T19:45:11.678Z,100.00
2023-05-06T19:47:40.939Z,100.00
2023-05-06T19:50:10.600Z,100.00
2023-05-06T19:52:40.884Z,100.00
2023-05-06T19:55:11.246Z,100.00
2023-05-06T19:57:40.221Z,100.00
2023-05-06T20:00:11.589Z,100.00
2023-05-06T20:02:41.429Z,100.00
2023-05-06T20:05:10.975Z,100.00
2023-05-06T20:07:42.097Z,100.00
2023-05-06T20:10:13.749Z,100.00
2023-05-06T20:12:42.880Z,100.00
2023-05-06T20:15:14.509Z,100.00
2023-05-06T20:17:44.116Z,100.00
2023-05-06T20:20:13.349Z,100.00
2023-05-06T20:22:43.480Z,100.00
2023-05-06T20:25:14.378Z,100.00
2023-05-06T20:27:43.017Z,100.00
2023-05-06T20:30:12.314Z,100.00
2023-05-06T20:32:41.623Z,100.00
2023-05-06T20:35:11.000Z,100.00
2023-05-06T20:37:41.211Z,100.00
2023-05-06T20:40:12.552Z,100.00
2023-05-06T20:42:41.115Z,100.00
2023-05-06T20:45:10.455Z,100.00
2023-05-06T20:47:39.678Z,100.00
2023-05-06T20:50:08.945Z,100.00
2023-05-06T20:52:37.791Z,100.00
2023-05-06T20:55:07.593Z,100.00
2023-05-06T20:57:43.249Z,100.00
2023-05-06T21:00:12.853Z,100.00
2023-05-06T21:02:42.232Z,100.00
2023-05-06T21:05:12.046Z,100.00
2023-05-06T21:07:40.943Z,100.00
2023-05-06T21:10:11.347Z,100.00
2023-05-06T21:12:47.364Z,100.00
2023-05-06T21:15:16.057Z,100.00
2023-05-06T21:17:44.563Z,100.00
2023-05-06T21:20:14.659Z,100.00
2023-05-06T21:22:43.348Z,100.00
2023-05-06T21:25:15.064Z,100.00
2023-05-06T21:27:44.973Z,100.00
2023-05-06T21:30:14.199Z,100.00
2023-05-06T21:32:43.799Z,100.00
2023-05-06T21:35:12.753Z,100.00
2023-05-06T21:37:41.534Z,100.00
2023-05-06T21:40:11.943Z,100.00
2023-05-06T21:42:40.499Z,100.00
2023-05-06T21:45:11.512Z,100.00
2023-05-06T21:47:40.298Z,100.00
2023-05-06T21:50:10.483Z,100.00
2023-05-06T21:52:39.550Z,100.00
2023-05-06T21:55:09.176Z,100.00
2023-05-06T21:57:38.744Z,100.00
2023-05-06T22:00:11.788Z,100.00
2023-05-06T22:02:49.988Z,100.00
2023-05-06T22:05:24.388Z,100.00
2023-05-06T22:07:52.924Z,100.00
2023-05-06T22:10:21.611Z,100.00
2023-05-06T22:12:51.748Z,100.00
2023-05-06T22:15:20.318Z,100.00
2023-05-06T22:17:50.245Z,100.00
2023-05-06T22:20:19.152Z,100.00
2023-05-06T22:22:47.692Z,100.00
2023-05-06T22:25:17.670Z,100.00
2023-05-06T22:27:46.100Z,100.00
2023-05-06T22:30:16.173Z,100.00
2023-05-06T22:32:44.621Z,100.00
2023-05-06T22:35:14.878Z,100.00
2023-05-06T22:37:43.445Z,100.00
2023-05-06T22:40:12.859Z,100.00
2023-05-06T22:42:41.342Z,100.00
2023-05-06T22:45:12.124Z,100.00
2023-05-06T22:47:41.177Z,100.00
2023-05-06T22:50:10.528Z,100.00
2023-05-06T22:52:40.406Z,100.00
2023-05-06T22:55:10.810Z,100.00
2023-05-06T22:57:39.519Z,100.00
2023-05-06T23:00:12.301Z,100.00
2023-05-06T23:02:40.855Z,100.00
2023-05-06T23:05:10.201Z,100.00
2023-05-06T23:07:40.492Z,100.00
2023-05-06T23:10:09.852Z,100.00
2023-05-06T23:12:38.375Z,100.00
2023-05-06T23:15:08.560Z,100.00
2023-05-06T23:17:37.245Z,100.00
2023-05-06T23:20:06.339Z,100.00
2023-05-06T23:22:35.680Z,100.00
2023-05-06T23:25:07.883Z,100.00
2023-05-06T23:27:38.447Z,100.00
2023-05-06T23:30:08.586Z,100.00
2023-05-06T23:32:38.179Z,100.00
2023-05-06T23:35:07.760Z,100.00
2023-05-06T23:37:36.522Z,100.00
2023-05-06T23:40:08.254Z,100.00
2023-05-06T23:42:36.670Z,100.00
2023-05-06T23:45:05.861Z,100.00
2023-05-06T23:47:34.489Z,100.00
2023-05-06T23:50:03.329Z,100.00
2023-05-06T23:52:32.084Z,100.00
2023-05-06T23:55:01.076Z,100.00
2023-05-06T23:57:33.203Z,100.00
